Red Lodge, MT (59068)

4:51 AM MDT on September 02, 2015 (GMT -0600)
Summit Station West of | | Change Station
CLOSE
Current Station
Personal Weather Station
Location: Red Lodge, MT
Elevation: 5415 ft
Nearby Weather Stations
Active Advisory: Fire Weather Warning

Elev 5415 ft 45.22 °N, 109.30 °W | Updated 10 minutes ago

Clear
Clear
74.1 °F
Feels Like 76 °F
N
4.7
Wind Variable Wind from South

Today
High -- | Low -- °F
--% Chance of Precip.
Yesterday
High -- | Low -- °F
Precip. -- in
6:39 AM 7:52 PM
Waning Gibbous, 81% visible
Pressure 29.92 in
Visibility 10.0 miles
Clouds Clear
Heat Index 76 °F
Dew Point 36 °F
Humidity 25%
Rainfall 0.00 in
Snow Depth Not available.
UV 0 out of 12
Pollen 9.10 out of 12
Air Quality Not available.
Flu Activity Not available.
METAR KCOD 021035Z AUTO 20007KT 10SM CLR 18/M01 A2992 RMK AO1
Pressure 29.92 in
Visibility 10.0 miles
Clouds Clear
Heat Index 76 °F
Dew Point 36 °F
Humidity 25%
Rainfall 0.00 in
Snow Depth Not available.
UV 0 out of 12
Pollen 9.10 out of 12
Air Quality Not available.
Flu Activity Not available.
METAR KCOD 021035Z AUTO 20007KT 10SM CLR 18/M01 A2992 RMK AO1

10-Day Weather Forecast

×

Almanac

Astronomy

Sep. 02, 2015 Rise Set
Actual Time
Civil Twilight
Nautical Twilight
Astronomical Twilight
Moon
Length of Visible Light
Length of Day
Tomorrow will be .
, % of the Moon is Illuminated

Today's Extremes

State Highs State Lows

Community

WunderPhotos

Upload Photos

1,851,734 photos uploaded!

WunderBlogs® & News

Nearby

Air Quality

  Air Quality AQ Index Pollutant
Not available.

Snow Depth

Station Depth Elevation

Earthquake Activity

City Distance Mag. Time & Date
Minimum magnitude displayed is 2.5.

Coastal Water Temperatures

Place Temperature

Stations

Nearby Weather Stations

Station Location Temp. Windchill Dew Point Humidity Wind Precip. Elev Updated Type
                   
Fire Weather Warning
Statement as of 3:23 AM MDT on September 02, 2015

... Red flag warning remains in effect from noon today to midnight
MDT tonight...

* impacts: low humidities... hot temperatures... and strong gusty
winds will create critical fire weather conditions.

* Affected area:
   in south central Mt... fire weather zones 123... 124... 125 and
   126.

* Counties affected:
   in central Mt... Wheatland.
   In south central Mt... Carbon... park... Stillwater... Sweet Grass.
   In southwest Mt... Gallatin.

* Wind: southwest 15 to 25 mph with gusts up to 40 mph.

* Humidity: lower to middle teens.

* Temperatures: in the upper 80s to lower 90s.

Precautionary/preparedness actions...

Be very careful with any open flames. Check with local officials
before conducting any burning.


Http://weather.Gov/Billings

Hooley